sensor_id;sensor_type;location;lat;lon;timestamp;temperature;humidity
6581;DHT22;3324;50.796;7.228;2022-12-29T00:01:24;12.50;99.90
6581;DHT22;3324;50.796;7.228;2022-12-29T00:03:50;12.50;99.90
6581;DHT22;3324;50.796;7.228;2022-12-29T00:06:16;12.50;99.90
6581;DHT22;3324;50.796;7.228;2022-12-29T00:08:41;12.50;99.90
6581;DHT22;3324;50.796;7.228;2022-12-29T00:11:16;12.50;99.90
6581;DHT22;3324;50.796;7.228;2022-12-29T00:13:43;12.50;99.90
6581;DHT22;3324;50.796;7.228;2022-12-29T00:16:27;12.50;99.90
6581;DHT22;3324;50.796;7.228;2022-12-29T00:18:53;12.50;99.90
6581;DHT22;3324;50.796;7.228;2022-12-29T00:21:21;12.60;99.90
6581;DHT22;3324;50.796;7.228;2022-12-29T00:24:06;12.50;99.90
6581;DHT22;3324;50.796;7.228;2022-12-29T00:26:58;12.50;99.90
6581;DHT22;3324;50.796;7.228;2022-12-29T00:29:48;12.60;99.90
6581;DHT22;3324;50.796;7.228;2022-12-29T00:32:32;12.60;99.90
6581;DHT22;3324;50.796;7.228;2022-12-29T00:35:45;12.60;99.90
6581;DHT22;3324;50.796;7.228;2022-12-29T00:38:10;12.60;99.90
6581;DHT22;3324;50.796;7.228;2022-12-29T00:40:55;12.60;99.90
6581;DHT22;3324;50.796;7.228;2022-12-29T00:43:39;12.60;99.90
6581;DHT22;3324;50.796;7.228;2022-12-29T00:46:22;12.60;99.90
6581;DHT22;3324;50.796;7.228;2022-12-29T00:48:48;12.60;99.90
6581;DHT22;3324;50.796;7.228;2022-12-29T00:51:32;12.60;99.90
6581;DHT22;3324;50.796;7.228;2022-12-29T00:53:58;12.60;99.90
6581;DHT22;3324;50.796;7.228;2022-12-29T00:56:23;12.60;99.90
6581;DHT22;3324;50.796;7.228;2022-12-29T00:58:49;12.60;99.90
6581;DHT22;3324;50.796;7.228;2022-12-29T01:01:14;12.60;99.90
6581;DHT22;3324;50.796;7.228;2022-12-29T01:03:40;12.60;99.90
6581;DHT22;3324;50.796;7.228;2022-12-29T01:06:08;12.60;99.90
6581;DHT22;3324;50.796;7.228;2022-12-29T01:08:35;12.60;99.90
6581;DHT22;3324;50.796;7.228;2022-12-29T01:11:03;12.60;99.90
6581;DHT22;3324;50.796;7.228;2022-12-29T01:13:29;12.60;99.90
6581;DHT22;3324;50.796;7.228;2022-12-29T01:15:56;12.60;99.90
6581;DHT22;3324;50.796;7.228;2022-12-29T01:18:23;12.60;99.90
6581;DHT22;3324;50.796;7.228;2022-12-29T01:20:49;12.60;99.90
6581;DHT22;3324;50.796;7.228;2022-12-29T01:23:15;12.60;99.90
6581;DHT22;3324;50.796;7.228;2022-12-29T01:25:41;12.60;99.90
6581;DHT22;3324;50.796;7.228;2022-12-29T01:28:06;12.60;99.90
6581;DHT22;3324;50.796;7.228;2022-12-29T01:30:34;12.60;99.90
6581;DHT22;3324;50.796;7.228;2022-12-29T01:33:00;12.60;99.90
6581;DHT22;3324;50.796;7.228;2022-12-29T01:35:26;12.60;99.90
6581;DHT22;3324;50.796;7.228;2022-12-29T01:37:52;12.70;99.90
6581;DHT22;3324;50.796;7.228;2022-12-29T01:40:17;12.70;99.90
6581;DHT22;3324;50.796;7.228;2022-12-29T01:42:43;12.70;99.90
6581;DHT22;3324;50.796;7.228;2022-12-29T01:45:11;12.80;99.90
6581;DHT22;3324;50.796;7.228;2022-12-29T01:47:56;12.80;99.90
6581;DHT22;3324;50.796;7.228;2022-12-29T01:50:28;12.90;99.90
6581;DHT22;3324;50.796;7.228;2022-12-29T01:55:25;12.90;99.90
6581;DHT22;3324;50.796;7.228;2022-12-29T01:57:53;12.90;99.90
6581;DHT22;3324;50.796;7.228;2022-12-29T02:00:19;12.90;99.90
6581;DHT22;3324;50.796;7.228;2022-12-29T02:02:49;12.90;99.90
6581;DHT22;3324;50.796;7.228;2022-12-29T02:07:54;13.00;99.90
6581;DHT22;3324;50.796;7.228;2022-12-29T02:10:21;13.00;99.90
6581;DHT22;3324;50.796;7.228;2022-12-29T02:12:48;13.00;99.90
6581;DHT22;3324;50.796;7.228;2022-12-29T02:15:15;13.00;99.90
6581;DHT22;3324;50.796;7.228;2022-12-29T02:18:09;13.00;99.90
6581;DHT22;3324;50.796;7.228;2022-12-29T02:26:57;13.10;99.90
6581;DHT22;3324;50.796;7.228;2022-12-29T02:32:26;13.10;99.90
6581;DHT22;3324;50.796;7.228;2022-12-29T02:46:41;13.00;99.90
6581;DHT22;3324;50.796;7.228;2022-12-29T02:49:16;13.00;99.90
6581;DHT22;3324;50.796;7.228;2022-12-29T02:51:57;12.90;99.90
6581;DHT22;3324;50.796;7.228;2022-12-29T02:54:23;12.90;99.90
6581;DHT22;3324;50.796;7.228;2022-12-29T02:59:40;12.90;99.90
6581;DHT22;3324;50.796;7.228;2022-12-29T03:07:49;12.90;99.90
6581;DHT22;3324;50.796;7.228;2022-12-29T03:10:31;12.90;99.90
6581;DHT22;3324;50.796;7.228;2022-12-29T03:16:44;12.90;99.90
6581;DHT22;3324;50.796;7.228;2022-12-29T03:19:14;12.90;99.90
6581;DHT22;3324;50.796;7.228;2022-12-29T03:21:46;12.80;99.90
6581;DHT22;3324;50.796;7.228;2022-12-29T03:24:34;12.90;99.90
6581;DHT22;3324;50.796;7.228;2022-12-29T03:27:05;12.80;99.90
6581;DHT22;3324;50.796;7.228;2022-12-29T03:29:38;12.90;99.90
6581;DHT22;3324;50.796;7.228;2022-12-29T03:32:05;12.90;99.90
6581;DHT22;3324;50.796;7.228;2022-12-29T03:34:33;12.90;99.90
6581;DHT22;3324;50.796;7.228;2022-12-29T03:37:17;12.90;99.90
6581;DHT22;3324;50.796;7.228;2022-12-29T03:39:44;12.90;99.90
6581;DHT22;3324;50.796;7.228;2022-12-29T03:42:14;12.90;99.90
6581;DHT22;3324;50.796;7.228;2022-12-29T03:44:42;12.90;99.90
6581;DHT22;3324;50.796;7.228;2022-12-29T03:47:11;13.00;99.90
6581;DHT22;3324;50.796;7.228;2022-12-29T03:49:37;13.00;99.90
6581;DHT22;3324;50.796;7.228;2022-12-29T03:52:03;13.00;99.90
6581;DHT22;3324;50.796;7.228;2022-12-29T03:54:30;13.00;99.90
6581;DHT22;3324;50.796;7.228;2022-12-29T03:56:55;12.90;99.90
6581;DHT22;3324;50.796;7.228;2022-12-29T03:59:21;12.90;99.90
6581;DHT22;3324;50.796;7.228;2022-12-29T04:01:46;12.90;99.90
6581;DHT22;3324;50.796;7.228;2022-12-29T04:04:12;12.90;99.90
6581;DHT22;3324;50.796;7.228;2022-12-29T04:06:37;12.90;99.90
6581;DHT22;3324;50.796;7.228;2022-12-29T04:09:03;12.90;99.90
6581;DHT22;3324;50.796;7.228;2022-12-29T04:11:29;12.80;99.90
6581;DHT22;3324;50.796;7.228;2022-12-29T04:13:54;12.90;99.90
6581;DHT22;3324;50.796;7.228;2022-12-29T04:16:20;12.80;99.90
6581;DHT22;3324;50.796;7.228;2022-12-29T04:18:46;12.80;99.90
6581;DHT22;3324;50.796;7.228;2022-12-29T04:21:11;12.80;99.90
6581;DHT22;3324;50.796;7.228;2022-12-29T04:23:38;12.90;99.90
6581;DHT22;3324;50.796;7.228;2022-12-29T04:26:05;12.80;99.90
6581;DHT22;3324;50.796;7.228;2022-12-29T04:28:32;12.80;99.90
6581;DHT22;3324;50.796;7.228;2022-12-29T04:30:58;12.80;99.90
6581;DHT22;3324;50.796;7.228;2022-12-29T04:33:24;12.80;99.90
6581;DHT22;3324;50.796;7.228;2022-12-29T04:35:50;12.80;99.90
6581;DHT22;3324;50.796;7.228;2022-12-29T04:38:16;12.80;99.90
6581;DHT22;3324;50.796;7.228;2022-12-29T04:40:42;12.80;99.90
6581;DHT22;3324;50.796;7.228;2022-12-29T04:43:09;12.70;99.90
6581;DHT22;3324;50.796;7.228;2022-12-29T04:45:35;12.70;99.90
6581;DHT22;3324;50.796;7.228;2022-12-29T04:48:01;12.70;99.90
6581;DHT22;3324;50.796;7.228;2022-12-29T04:50:27;12.70;99.90
6581;DHT22;3324;50.796;7.228;2022-12-29T04:52:52;12.80;99.90
6581;DHT22;3324;50.796;7.228;2022-12-29T04:55:18;12.70;99.90
6581;DHT22;3324;50.796;7.228;2022-12-29T04:57:44;12.70;99.90
6581;DHT22;3324;50.796;7.228;2022-12-29T05:00:10;12.70;99.90
6581;DHT22;3324;50.796;7.228;2022-12-29T05:02:36;12.70;99.90
6581;DHT22;3324;50.796;7.228;2022-12-29T05:05:03;12.70;99.90
6581;DHT22;3324;50.796;7.228;2022-12-29T05:07:28;12.60;99.90
6581;DHT22;3324;50.796;7.228;2022-12-29T05:09:54;12.70;99.90
6581;DHT22;3324;50.796;7.228;2022-12-29T05:12:19;12.70;99.90
6581;DHT22;3324;50.796;7.228;2022-12-29T05:14:45;12.80;99.90
6581;DHT22;3324;50.796;7.228;2022-12-29T05:17:10;12.80;99.90
6581;DHT22;3324;50.796;7.228;2022-12-29T05:19:36;12.80;99.90
6581;DHT22;3324;50.796;7.228;2022-12-29T05:22:03;12.80;99.90
6581;DHT22;3324;50.796;7.228;2022-12-29T05:24:29;12.70;99.90
6581;DHT22;3324;50.796;7.228;2022-12-29T05:26:55;12.70;99.90
6581;DHT22;3324;50.796;7.228;2022-12-29T05:29:20;12.70;99.90
6581;DHT22;3324;50.796;7.228;2022-12-29T05:31:46;12.60;99.90
6581;DHT22;3324;50.796;7.228;2022-12-29T05:34:12;12.60;99.90
6581;DHT22;3324;50.796;7.228;2022-12-29T05:36:38;12.60;99.90
6581;DHT22;3324;50.796;7.228;2022-12-29T05:39:04;12.50;99.90
6581;DHT22;3324;50.796;7.228;2022-12-29T05:41:29;12.50;99.90
6581;DHT22;3324;50.796;7.228;2022-12-29T05:43:55;12.50;99.90
6581;DHT22;3324;50.796;7.228;2022-12-29T05:46:20;12.40;99.90
6581;DHT22;3324;50.796;7.228;2022-12-29T05:48:46;12.40;99.90
6581;DHT22;3324;50.796;7.228;2022-12-29T05:51:12;12.40;99.90
6581;DHT22;3324;50.796;7.228;2022-12-29T05:53:37;12.40;99.90
6581;DHT22;3324;50.796;7.228;2022-12-29T05:56:03;12.40;99.90
6581;DHT22;3324;50.796;7.228;2022-12-29T05:58:29;12.40;99.90
6581;DHT22;3324;50.796;7.228;2022-12-29T06:00:54;12.40;99.90
6581;DHT22;3324;50.796;7.228;2022-12-29T06:03:20;12.40;99.90
6581;DHT22;3324;50.796;7.228;2022-12-29T06:05:46;12.40;99.90
6581;DHT22;3324;50.796;7.228;2022-12-29T06:08:11;12.30;99.90
6581;DHT22;3324;50.796;7.228;2022-12-29T06:10:37;12.20;99.90
6581;DHT22;3324;50.796;7.228;2022-12-29T06:13:03;12.20;99.90
6581;DHT22;3324;50.796;7.228;2022-12-29T06:15:31;12.10;99.90
6581;DHT22;3324;50.796;7.228;2022-12-29T06:17:56;12.00;99.90
6581;DHT22;3324;50.796;7.228;2022-12-29T06:20:22;12.10;99.90
6581;DHT22;3324;50.796;7.228;2022-12-29T06:22:48;12.00;99.90
6581;DHT22;3324;50.796;7.228;2022-12-29T06:25:14;12.00;99.90
6581;DHT22;3324;50.796;7.228;2022-12-29T06:27:40;12.00;99.90
6581;DHT22;3324;50.796;7.228;2022-12-29T06:30:06;11.90;99.90
6581;DHT22;3324;50.796;7.228;2022-12-29T06:32:32;11.90;99.90
6581;DHT22;3324;50.796;7.228;2022-12-29T06:34:58;11.90;99.90
6581;DHT22;3324;50.796;7.228;2022-12-29T06:37:24;11.80;99.90
6581;DHT22;3324;50.796;7.228;2022-12-29T06:39:50;11.80;99.90
6581;DHT22;3324;50.796;7.228;2022-12-29T06:42:16;11.90;99.90
6581;DHT22;3324;50.796;7.228;2022-12-29T06:44:41;11.80;99.90
6581;DHT22;3324;50.796;7.228;2022-12-29T06:47:07;11.80;99.90
6581;DHT22;3324;50.796;7.228;2022-12-29T06:49:32;11.80;99.90
6581;DHT22;3324;50.796;7.228;2022-12-29T06:51:58;11.70;99.90
6581;DHT22;3324;50.796;7.228;2022-12-29T06:54:26;11.70;99.90
6581;DHT22;3324;50.796;7.228;2022-12-29T06:56:52;11.70;99.90
6581;DHT22;3324;50.796;7.228;2022-12-29T06:59:17;11.70;99.90
6581;DHT22;3324;50.796;7.228;2022-12-29T07:01:43;11.70;99.90
6581;DHT22;3324;50.796;7.228;2022-12-29T07:04:08;11.70;99.90
6581;DHT22;3324;50.796;7.228;2022-12-29T07:06:34;11.70;99.90
6581;DHT22;3324;50.796;7.228;2022-12-29T07:08:59;11.70;99.90
6581;DHT22;3324;50.796;7.228;2022-12-29T07:11:25;11.70;99.90
6581;DHT22;3324;50.796;7.228;2022-12-29T07:13:51;11.60;99.90
6581;DHT22;3324;50.796;7.228;2022-12-29T07:16:16;11.60;99.90
6581;DHT22;3324;50.796;7.228;2022-12-29T07:18:42;11.60;99.90
6581;DHT22;3324;50.796;7.228;2022-12-29T07:21:08;11.70;99.90
6581;DHT22;3324;50.796;7.228;2022-12-29T07:23:34;11.70;99.90
6581;DHT22;3324;50.796;7.228;2022-12-29T07:26:07;11.70;99.90
6581;DHT22;3324;50.796;7.228;2022-12-29T07:28:34;11.70;99.90
6581;DHT22;3324;50.796;7.228;2022-12-29T07:31:00;11.70;99.90
6581;DHT22;3324;50.796;7.228;2022-12-29T07:33:28;11.70;99.90
6581;DHT22;3324;50.796;7.228;2022-12-29T07:35:54;11.70;99.90
6581;DHT22;3324;50.796;7.228;2022-12-29T07:38:19;11.70;99.90
6581;DHT22;3324;50.796;7.228;2022-12-29T07:40:45;11.80;99.90
6581;DHT22;3324;50.796;7.228;2022-12-29T07:43:10;11.80;99.90
6581;DHT22;3324;50.796;7.228;2022-12-29T07:45:36;11.70;99.90
6581;DHT22;3324;50.796;7.228;2022-12-29T07:48:01;11.80;99.90
6581;DHT22;3324;50.796;7.228;2022-12-29T07:50:28;11.80;99.90
6581;DHT22;3324;50.796;7.228;2022-12-29T07:52:53;11.80;99.90
6581;DHT22;3324;50.796;7.228;2022-12-29T07:55:19;11.80;99.90
6581;DHT22;3324;50.796;7.228;2022-12-29T07:57:44;11.80;99.90
6581;DHT22;3324;50.796;7.228;2022-12-29T08:00:11;11.80;99.90
6581;DHT22;3324;50.796;7.228;2022-12-29T08:02:36;11.80;99.90
6581;DHT22;3324;50.796;7.228;2022-12-29T08:05:02;11.80;99.90
6581;DHT22;3324;50.796;7.228;2022-12-29T08:07:28;11.90;99.90
6581;DHT22;3324;50.796;7.228;2022-12-29T08:09:53;11.80;99.90
6581;DHT22;3324;50.796;7.228;2022-12-29T08:12:19;11.90;99.90
6581;DHT22;3324;50.796;7.228;2022-12-29T08:14:44;11.90;99.90
6581;DHT22;3324;50.796;7.228;2022-12-29T08:17:10;11.80;99.90
6581;DHT22;3324;50.796;7.228;2022-12-29T08:19:36;11.80;99.90
6581;DHT22;3324;50.796;7.228;2022-12-29T08:22:02;11.80;99.90
6581;DHT22;3324;50.796;7.228;2022-12-29T08:24:28;11.90;99.90
6581;DHT22;3324;50.796;7.228;2022-12-29T08:26:53;11.80;99.90
6581;DHT22;3324;50.796;7.228;2022-12-29T08:29:19;11.90;99.90
6581;DHT22;3324;50.796;7.228;2022-12-29T08:31:46;11.90;99.90
6581;DHT22;3324;50.796;7.228;2022-12-29T08:34:12;11.90;99.90
6581;DHT22;3324;50.796;7.228;2022-12-29T08:36:38;11.90;99.90
6581;DHT22;3324;50.796;7.228;2022-12-29T08:39:03;11.80;99.90
6581;DHT22;3324;50.796;7.228;2022-12-29T08:41:29;11.90;99.90
6581;DHT22;3324;50.796;7.228;2022-12-29T08:43:55;11.90;99.90
6581;DHT22;3324;50.796;7.228;2022-12-29T08:46:20;11.90;99.90
6581;DHT22;3324;50.796;7.228;2022-12-29T08:48:46;12.00;99.90
6581;DHT22;3324;50.796;7.228;2022-12-29T08:51:11;11.90;99.90
6581;DHT22;3324;50.796;7.228;2022-12-29T08:53:37;11.90;99.90
6581;DHT22;3324;50.796;7.228;2022-12-29T08:56:03;11.90;99.90
6581;DHT22;3324;50.796;7.228;2022-12-29T08:58:29;11.90;99.90
6581;DHT22;3324;50.796;7.228;2022-12-29T09:00:56;11.90;99.90
6581;DHT22;3324;50.796;7.228;2022-12-29T09:03:23;11.90;99.90
6581;DHT22;3324;50.796;7.228;2022-12-29T09:05:50;11.80;99.90
6581;DHT22;3324;50.796;7.228;2022-12-29T09:08:16;11.90;99.90
6581;DHT22;3324;50.796;7.228;2022-12-29T09:10:42;11.80;99.90
6581;DHT22;3324;50.796;7.228;2022-12-29T09:13:08;11.90;99.90
6581;DHT22;3324;50.796;7.228;2022-12-29T09:15:34;11.90;99.90
6581;DHT22;3324;50.796;7.228;2022-12-29T09:18:00;11.90;99.90
6581;DHT22;3324;50.796;7.228;2022-12-29T09:20:25;11.90;99.90
6581;DHT22;3324;50.796;7.228;2022-12-29T09:22:51;11.90;99.90
6581;DHT22;3324;50.796;7.228;2022-12-29T09:25:16;11.90;99.90
6581;DHT22;3324;50.796;7.228;2022-12-29T09:27:42;11.90;99.90
6581;DHT22;3324;50.796;7.228;2022-12-29T09:30:10;11.90;99.90
6581;DHT22;3324;50.796;7.228;2022-12-29T09:32:36;11.90;99.90
6581;DHT22;3324;50.796;7.228;2022-12-29T09:35:02;11.90;99.90
6581;DHT22;3324;50.796;7.228;2022-12-29T09:37:28;12.00;99.90
6581;DHT22;3324;50.796;7.228;2022-12-29T09:39:54;12.00;99.90
6581;DHT22;3324;50.796;7.228;2022-12-29T09:42:25;12.00;99.90
6581;DHT22;3324;50.796;7.228;2022-12-29T09:45:15;12.00;99.90
6581;DHT22;3324;50.796;7.228;2022-12-29T09:47:43;12.00;99.90
6581;DHT22;3324;50.796;7.228;2022-12-29T09:50:30;12.00;99.90
6581;DHT22;3324;50.796;7.228;2022-12-29T09:55:38;12.00;99.90
6581;DHT22;3324;50.796;7.228;2022-12-29T09:58:21;12.00;99.90
6581;DHT22;3324;50.796;7.228;2022-12-29T10:03:20;12.00;99.90
6581;DHT22;3324;50.796;7.228;2022-12-29T10:05:48;12.00;99.90
6581;DHT22;3324;50.796;7.228;2022-12-29T10:08:37;12.00;99.90
6581;DHT22;3324;50.796;7.228;2022-12-29T10:16:40;12.10;99.90
6581;DHT22;3324;50.796;7.228;2022-12-29T10:24:22;12.20;99.90
6581;DHT22;3324;50.796;7.228;2022-12-29T10:26:51;12.10;99.90
6581;DHT22;3324;50.796;7.228;2022-12-29T10:29:23;12.20;99.90
6581;DHT22;3324;50.796;7.228;2022-12-29T10:34:34;12.20;99.90
6581;DHT22;3324;50.796;7.228;2022-12-29T10:37:30;12.20;99.90
6581;DHT22;3324;50.796;7.228;2022-12-29T10:39:59;12.20;99.90
6581;DHT22;3324;50.796;7.228;2022-12-29T10:42:33;12.20;99.90
6581;DHT22;3324;50.796;7.228;2022-12-29T10:45:02;12.20;99.90
6581;DHT22;3324;50.796;7.228;2022-12-29T10:47:33;12.30;99.90
6581;DHT22;3324;50.796;7.228;2022-12-29T10:50:00;12.30;99.90
6581;DHT22;3324;50.796;7.228;2022-12-29T10:52:27;12.20;99.90
6581;DHT22;3324;50.796;7.228;2022-12-29T10:54:54;12.20;99.90
6581;DHT22;3324;50.796;7.228;2022-12-29T10:57:32;12.20;99.90
6581;DHT22;3324;50.796;7.228;2022-12-29T10:59:59;12.20;99.90
6581;DHT22;3324;50.796;7.228;2022-12-29T11:05:15;12.30;99.90
6581;DHT22;3324;50.796;7.228;2022-12-29T11:07:42;12.30;99.90
6581;DHT22;3324;50.796;7.228;2022-12-29T11:10:30;12.30;99.90
6581;DHT22;3324;50.796;7.228;2022-12-29T11:13:03;12.40;99.90
6581;DHT22;3324;50.796;7.228;2022-12-29T11:15:47;12.40;99.90
6581;DHT22;3324;50.796;7.228;2022-12-29T11:18:39;12.40;99.90
6581;DHT22;3324;50.796;7.228;2022-12-29T11:21:23;12.50;99.90
6581;DHT22;3324;50.796;7.228;2022-12-29T11:24:02;12.50;99.90
6581;DHT22;3324;50.796;7.228;2022-12-29T11:26:29;12.50;99.90
6581;DHT22;3324;50.796;7.228;2022-12-29T11:31:51;12.50;99.90
6581;DHT22;3324;50.796;7.228;2022-12-29T11:34:26;12.60;99.90
6581;DHT22;3324;50.796;7.228;2022-12-29T11:37:11;12.60;99.90
6581;DHT22;3324;50.796;7.228;2022-12-29T11:42:36;12.70;99.90
6581;DHT22;3324;50.796;7.228;2022-12-29T11:45:16;12.70;99.90
6581;DHT22;3324;50.796;7.228;2022-12-29T11:47:45;12.80;99.90
6581;DHT22;3324;50.796;7.228;2022-12-29T11:50:18;12.70;99.90
6581;DHT22;3324;50.796;7.228;2022-12-29T11:52:45;12.80;99.90
6581;DHT22;3324;50.796;7.228;2022-12-29T11:55:20;12.80;99.90
6581;DHT22;3324;50.796;7.228;2022-12-29T11:57:47;12.80;99.90
6581;DHT22;3324;50.796;7.228;2022-12-29T12:00:17;12.80;99.90
6581;DHT22;3324;50.796;7.228;2022-12-29T12:10:58;12.70;99.90
6581;DHT22;3324;50.796;7.228;2022-12-29T12:16:18;12.70;99.90
6581;DHT22;3324;50.796;7.228;2022-12-29T12:18:48;12.70;99.90
6581;DHT22;3324;50.796;7.228;2022-12-29T12:21:37;12.70;99.90
6581;DHT22;3324;50.796;7.228;2022-12-29T12:24:22;12.70;99.90
6581;DHT22;3324;50.796;7.228;2022-12-29T12:29:41;12.60;99.90
6581;DHT22;3324;50.796;7.228;2022-12-29T12:34:45;12.70;99.90
6581;DHT22;3324;50.796;7.228;2022-12-29T12:40:12;12.60;99.90
6581;DHT22;3324;50.796;7.228;2022-12-29T12:45:48;12.50;99.90
6581;DHT22;3324;50.796;7.228;2022-12-29T12:57:05;12.50;99.90
6581;DHT22;3324;50.796;7.228;2022-12-29T13:20:28;12.40;99.90
6581;DHT22;3324;50.796;7.228;2022-12-29T13:23:20;12.40;99.90
6581;DHT22;3324;50.796;7.228;2022-12-29T13:31:20;12.40;99.90
6581;DHT22;3324;50.796;7.228;2022-12-29T13:34:11;12.40;99.90
6581;DHT22;3324;50.796;7.228;2022-12-29T13:36:52;12.40;99.90
6581;DHT22;3324;50.796;7.228;2022-12-29T13:41:58;12.30;99.90
6581;DHT22;3324;50.796;7.228;2022-12-29T13:44:27;12.30;99.90
6581;DHT22;3324;50.796;7.228;2022-12-29T13:46:56;12.30;99.90
6581;DHT22;3324;50.796;7.228;2022-12-29T13:49:22;12.20;99.90
6581;DHT22;3324;50.796;7.228;2022-12-29T13:52:19;12.20;99.90
6581;DHT22;3324;50.796;7.228;2022-12-29T13:57:48;12.20;99.90
6581;DHT22;3324;50.796;7.228;2022-12-29T14:00:20;12.20;99.90
6581;DHT22;3324;50.796;7.228;2022-12-29T14:02:50;12.20;99.90
6581;DHT22;3324;50.796;7.228;2022-12-29T14:07:58;12.20;99.90
6581;DHT22;3324;50.796;7.228;2022-12-29T14:10:37;12.20;99.90
6581;DHT22;3324;50.796;7.228;2022-12-29T14:13:17;12.20;99.90
6581;DHT22;3324;50.796;7.228;2022-12-29T14:15:46;12.20;99.90
6581;DHT22;3324;50.796;7.228;2022-12-29T14:18:19;12.30;99.90
6581;DHT22;3324;50.796;7.228;2022-12-29T14:26:15;12.40;99.90
6581;DHT22;3324;50.796;7.228;2022-12-29T14:28:49;12.40;99.90
6581;DHT22;3324;50.796;7.228;2022-12-29T14:33:40;12.30;99.90
6581;DHT22;3324;50.796;7.228;2022-12-29T14:36:26;12.30;99.90
6581;DHT22;3324;50.796;7.228;2022-12-29T14:38:58;12.30;99.90
6581;DHT22;3324;50.796;7.228;2022-12-29T14:41:26;12.20;99.90
6581;DHT22;3324;50.796;7.228;2022-12-29T14:44:18;12.20;99.90
6581;DHT22;3324;50.796;7.228;2022-12-29T14:49:22;12.10;99.90
6581;DHT22;3324;50.796;7.228;2022-12-29T14:52:04;12.10;99.90
6581;DHT22;3324;50.796;7.228;2022-12-29T14:54:34;12.00;99.90
6581;DHT22;3324;50.796;7.228;2022-12-29T14:57:14;11.90;99.90
6581;DHT22;3324;50.796;7.228;2022-12-29T14:59:40;11.90;99.90
6581;DHT22;3324;50.796;7.228;2022-12-29T15:02:16;11.90;99.90
6581;DHT22;3324;50.796;7.228;2022-12-29T15:04:42;11.80;99.90
6581;DHT22;3324;50.796;7.228;2022-12-29T15:07:10;11.80;99.90
6581;DHT22;3324;50.796;7.228;2022-12-29T15:09:40;11.70;99.90
6581;DHT22;3324;50.796;7.228;2022-12-29T15:14:59;11.70;99.90
6581;DHT22;3324;50.796;7.228;2022-12-29T15:17:33;11.70;99.90
6581;DHT22;3324;50.796;7.228;2022-12-29T15:20:03;11.70;99.90
6581;DHT22;3324;50.796;7.228;2022-12-29T15:22:43;11.70;99.90
6581;DHT22;3324;50.796;7.228;2022-12-29T15:25:15;11.60;99.90
6581;DHT22;3324;50.796;7.228;2022-12-29T15:27:42;11.50;99.90
6581;DHT22;3324;50.796;7.228;2022-12-29T15:30:12;11.40;99.90
6581;DHT22;3324;50.796;7.228;2022-12-29T15:32:46;11.30;99.90
6581;DHT22;3324;50.796;7.228;2022-12-29T15:35:32;11.30;99.90
6581;DHT22;3324;50.796;7.228;2022-12-29T15:37:59;11.20;99.90
6581;DHT22;3324;50.796;7.228;2022-12-29T15:40:32;11.20;99.90
6581;DHT22;3324;50.796;7.228;2022-12-29T15:43:28;11.00;99.90
6581;DHT22;3324;50.796;7.228;2022-12-29T15:45:57;11.00;99.90
6581;DHT22;3324;50.796;7.228;2022-12-29T15:48:25;11.00;99.90
6581;DHT22;3324;50.796;7.228;2022-12-29T15:50:51;10.90;99.90
6581;DHT22;3324;50.796;7.228;2022-12-29T15:53:27;10.90;99.90
6581;DHT22;3324;50.796;7.228;2022-12-29T15:56:00;10.80;99.90
6581;DHT22;3324;50.796;7.228;2022-12-29T15:58:29;10.80;99.90
6581;DHT22;3324;50.796;7.228;2022-12-29T16:00:58;10.70;99.90
6581;DHT22;3324;50.796;7.228;2022-12-29T16:03:30;10.70;99.90
6581;DHT22;3324;50.796;7.228;2022-12-29T16:06:07;10.70;99.90
6581;DHT22;3324;50.796;7.228;2022-12-29T16:08:36;10.60;99.90
6581;DHT22;3324;50.796;7.228;2022-12-29T16:11:41;10.60;99.90
6581;DHT22;3324;50.796;7.228;2022-12-29T16:14:09;10.60;99.90
6581;DHT22;3324;50.796;7.228;2022-12-29T16:16:38;10.60;99.90
6581;DHT22;3324;50.796;7.228;2022-12-29T16:19:23;10.60;99.90
6581;DHT22;3324;50.796;7.228;2022-12-29T16:21:51;10.60;99.90
6581;DHT22;3324;50.796;7.228;2022-12-29T16:24:23;10.50;99.90
6581;DHT22;3324;50.796;7.228;2022-12-29T16:29:25;10.50;99.90
6581;DHT22;3324;50.796;7.228;2022-12-29T16:31:58;10.50;99.90
6581;DHT22;3324;50.796;7.228;2022-12-29T16:39:53;10.40;99.90
6581;DHT22;3324;50.796;7.228;2022-12-29T16:47:45;10.30;99.90
6581;DHT22;3324;50.796;7.228;2022-12-29T16:50:16;10.30;99.90
6581;DHT22;3324;50.796;7.228;2022-12-29T16:52:48;10.30;99.90
6581;DHT22;3324;50.796;7.228;2022-12-29T16:55:18;10.20;99.90
6581;DHT22;3324;50.796;7.228;2022-12-29T16:57:47;10.20;99.90
6581;DHT22;3324;50.796;7.228;2022-12-29T17:00:22;10.20;99.90
6581;DHT22;3324;50.796;7.228;2022-12-29T17:02:50;10.20;99.90
6581;DHT22;3324;50.796;7.228;2022-12-29T17:05:17;10.20;99.90
6581;DHT22;3324;50.796;7.228;2022-12-29T17:07:43;10.20;99.90
6581;DHT22;3324;50.796;7.228;2022-12-29T17:10:11;10.20;99.90
6581;DHT22;3324;50.796;7.228;2022-12-29T17:12:38;10.20;99.90
6581;DHT22;3324;50.796;7.228;2022-12-29T17:17:49;10.10;99.90
6581;DHT22;3324;50.796;7.228;2022-12-29T17:20:22;10.10;99.90
6581;DHT22;3324;50.796;7.228;2022-12-29T17:22:49;10.20;99.90
6581;DHT22;3324;50.796;7.228;2022-12-29T17:25:36;10.20;99.90
6581;DHT22;3324;50.796;7.228;2022-12-29T17:28:24;10.20;99.90
6581;DHT22;3324;50.796;7.228;2022-12-29T17:30:59;10.20;99.90
6581;DHT22;3324;50.796;7.228;2022-12-29T17:33:26;10.20;99.90
6581;DHT22;3324;50.796;7.228;2022-12-29T17:35:53;10.20;99.90
6581;DHT22;3324;50.796;7.228;2022-12-29T17:38:27;10.20;99.90
6581;DHT22;3324;50.796;7.228;2022-12-29T17:40:53;10.20;99.90
6581;DHT22;3324;50.796;7.228;2022-12-29T17:43:19;10.20;99.90
6581;DHT22;3324;50.796;7.228;2022-12-29T17:45:52;10.20;99.90
6581;DHT22;3324;50.796;7.228;2022-12-29T17:48:18;10.30;99.90
6581;DHT22;3324;50.796;7.228;2022-12-29T17:50:45;10.30;99.90
6581;DHT22;3324;50.796;7.228;2022-12-29T17:53:14;10.20;99.90
6581;DHT22;3324;50.796;7.228;2022-12-29T17:55:41;10.20;99.90
6581;DHT22;3324;50.796;7.228;2022-12-29T17:58:24;10.20;99.90
6581;DHT22;3324;50.796;7.228;2022-12-29T18:00:52;10.20;99.90
6581;DHT22;3324;50.796;7.228;2022-12-29T18:03:39;10.10;99.90
6581;DHT22;3324;50.796;7.228;2022-12-29T18:06:06;10.10;99.90
6581;DHT22;3324;50.796;7.228;2022-12-29T18:08:34;10.10;99.90
6581;DHT22;3324;50.796;7.228;2022-12-29T18:11:00;10.10;99.90
6581;DHT22;3324;50.796;7.228;2022-12-29T18:13:29;10.10;99.90
6581;DHT22;3324;50.796;7.228;2022-12-29T18:15:55;10.00;99.90
6581;DHT22;3324;50.796;7.228;2022-12-29T18:18:23;10.00;99.90
6581;DHT22;3324;50.796;7.228;2022-12-29T18:20:51;10.00;99.90
6581;DHT22;3324;50.796;7.228;2022-12-29T18:23:26;10.10;99.90
6581;DHT22;3324;50.796;7.228;2022-12-29T18:28:19;10.00;99.90
6581;DHT22;3324;50.796;7.228;2022-12-29T18:30:45;10.00;99.90
6581;DHT22;3324;50.796;7.228;2022-12-29T18:33:19;10.00;99.90
6581;DHT22;3324;50.796;7.228;2022-12-29T18:35:51;10.00;99.90
6581;DHT22;3324;50.796;7.228;2022-12-29T18:38:19;9.90;99.90
6581;DHT22;3324;50.796;7.228;2022-12-29T18:40:44;9.90;99.90
6581;DHT22;3324;50.796;7.228;2022-12-29T18:43:15;9.90;99.90
6581;DHT22;3324;50.796;7.228;2022-12-29T18:45:41;10.00;99.90
6581;DHT22;3324;50.796;7.228;2022-12-29T18:48:10;10.00;99.90
6581;DHT22;3324;50.796;7.228;2022-12-29T18:50:36;10.00;99.90
6581;DHT22;3324;50.796;7.228;2022-12-29T18:53:01;10.00;99.90
6581;DHT22;3324;50.796;7.228;2022-12-29T18:55:28;10.00;99.90
6581;DHT22;3324;50.796;7.228;2022-12-29T18:57:54;10.00;99.90
6581;DHT22;3324;50.796;7.228;2022-12-29T19:00:20;10.00;99.90
6581;DHT22;3324;50.796;7.228;2022-12-29T19:02:48;10.00;99.90